createdAt,value
2023-05-12T00:00:49.095Z,2.50
2023-05-12T00:01:54.905Z,2.60
2023-05-12T00:04:37.220Z,2.50
2023-05-12T00:05:43.750Z,2.80
2023-05-12T00:06:50.292Z,2.00
2023-05-12T00:07:56.766Z,2.40
2023-05-12T00:09:02.997Z,2.50
2023-05-12T00:10:11.779Z,3.00
2023-05-12T00:11:17.767Z,2.20
2023-05-12T00:12:24.034Z,2.20
2023-05-12T00:13:30.429Z,2.60
2023-05-12T00:14:36.935Z,2.60
2023-05-12T00:15:43.387Z,2.30
2023-05-12T00:16:52.896Z,3.20
2023-05-12T00:17:59.141Z,2.50
2023-05-12T00:19:06.223Z,2.50
2023-05-12T00:20:14.732Z,2.50
2023-05-12T00:21:21.109Z,2.80
2023-05-12T00:22:27.683Z,2.50
2023-05-12T00:23:34.331Z,2.60
2023-05-12T00:24:41.275Z,2.70
2023-05-12T00:25:47.964Z,2.80
2023-05-12T00:26:54.826Z,2.70
2023-05-12T00:28:01.603Z,2.30
2023-05-12T00:29:08.577Z,2.40
2023-05-12T00:30:17.927Z,2.30
2023-05-12T00:31:23.942Z,2.60
2023-05-12T00:32:30.130Z,2.20
2023-05-12T00:33:36.759Z,2.70
2023-05-12T00:34:43.554Z,2.60
2023-05-12T00:35:49.646Z,2.40
2023-05-12T00:36:55.477Z,2.30
2023-05-12T00:38:01.597Z,2.20
2023-05-12T00:39:07.834Z,2.50
2023-05-12T00:40:14.780Z,2.40
2023-05-12T00:41:20.934Z,2.70
2023-05-12T00:42:26.721Z,2.20
2023-05-12T00:43:33.685Z,2.40
2023-05-12T00:44:40.578Z,2.50
2023-05-12T00:45:47.723Z,2.30
2023-05-12T00:46:55.498Z,2.60
2023-05-12T00:48:01.464Z,2.30
2023-05-12T00:49:09.628Z,2.40
2023-05-12T00:50:17.189Z,1.90
2023-05-12T00:51:26.026Z,2.20
2023-05-12T00:52:32.490Z,2.00
2023-05-12T00:53:49.282Z,2.40
2023-05-12T00:54:57.277Z,2.50
2023-05-12T00:56:04.148Z,2.20
2023-05-12T00:57:10.357Z,2.10
2023-05-12T00:58:17.162Z,2.40
2023-05-12T00:59:23.369Z,2.60
2023-05-12T01:00:30.380Z,2.30
2023-05-12T01:01:38.093Z,2.40
2023-05-12T01:02:45.404Z,2.50
2023-05-12T01:03:51.521Z,2.10
2023-05-12T01:04:57.345Z,2.30
2023-05-12T01:06:13.173Z,2.50
2023-05-12T01:07:22.451Z,3.20
2023-05-12T01:08:29.924Z,2.30
2023-05-12T01:09:36.697Z,2.00
2023-05-12T01:10:47.296Z,1.80
2023-05-12T01:11:53.871Z,1.70
2023-05-12T01:13:00.105Z,1.70
2023-05-12T01:14:06.227Z,2.20
2023-05-12T01:15:14.080Z,2.20
2023-05-12T01:16:26.569Z,2.40
2023-05-12T01:17:35.025Z,2.70
2023-05-12T01:18:43.410Z,2.50
2023-05-12T01:19:53.843Z,2.60
2023-05-12T01:21:00.905Z,2.40
2023-05-12T01:22:07.289Z,2.80
2023-05-12T01:23:16.179Z,2.30
2023-05-12T01:24:24.371Z,2.30
2023-05-12T01:25:34.829Z,2.30
2023-05-12T01:26:41.624Z,2.50
2023-05-12T01:27:49.405Z,2.60
2023-05-12T01:28:57.734Z,2.80
2023-05-12T01:30:07.975Z,2.70
2023-05-12T01:31:15.978Z,2.30
2023-05-12T01:32:23.672Z,2.60
2023-05-12T01:33:31.811Z,2.40
2023-05-12T01:34:38.726Z,2.80
2023-05-12T01:35:45.090Z,2.20
2023-05-12T01:36:51.284Z,2.50
2023-05-12T01:37:57.383Z,2.90
2023-05-12T01:39:03.222Z,2.40
2023-05-12T01:40:11.220Z,2.70
2023-05-12T01:41:17.070Z,2.40
2023-05-12T01:42:22.930Z,2.50
2023-05-12T01:43:28.952Z,2.70
2023-05-12T01:44:35.503Z,2.70
2023-05-12T01:45:41.357Z,2.50
2023-05-12T01:46:49.576Z,2.30
2023-05-12T01:47:55.485Z,3.20
2023-05-12T01:49:01.758Z,2.50
2023-05-12T01:50:10.334Z,2.40
2023-05-12T01:51:17.538Z,2.50
2023-05-12T01:52:25.101Z,2.30
2023-05-12T01:53:31.290Z,2.60
2023-05-12T01:54:37.422Z,2.80
2023-05-12T01:55:44.112Z,2.60
2023-05-12T01:56:50.197Z,2.50
2023-05-12T01:57:56.135Z,2.00
2023-05-12T01:59:02.407Z,2.20
2023-05-12T02:00:10.645Z,2.00
2023-05-12T02:01:16.623Z,2.40
2023-05-12T02:02:22.613Z,2.40
2023-05-12T02:03:28.719Z,3.00
2023-05-12T02:04:34.799Z,2.50
2023-05-12T02:05:41.394Z,2.30
2023-05-12T02:06:47.515Z,2.90
2023-05-12T02:07:53.699Z,13.10
2023-05-12T02:08:59.914Z,4.30
2023-05-12T02:10:08.101Z,4.10
2023-05-12T02:11:13.923Z,3.60
2023-05-12T02:12:19.997Z,3.10
2023-05-12T02:13:25.997Z,3.00
2023-05-12T02:14:32.343Z,2.60
2023-05-12T02:15:38.789Z,2.50
2023-05-12T02:16:45.077Z,2.50
2023-05-12T02:17:54.074Z,2.70
2023-05-12T02:19:00.394Z,2.50
2023-05-12T02:20:08.783Z,3.00
2023-05-12T02:21:15.048Z,2.80
2023-05-12T02:22:21.061Z,2.70
2023-05-12T02:23:27.005Z,3.30
2023-05-12T02:24:33.529Z,3.20
2023-05-12T02:25:39.622Z,2.50
2023-05-12T02:26:46.029Z,2.10
2023-05-12T02:27:52.085Z,2.70
2023-05-12T02:28:58.443Z,2.30
2023-05-12T02:30:05.088Z,2.30
2023-05-12T02:31:11.153Z,2.40
2023-05-12T02:32:17.407Z,2.30
2023-05-12T02:33:23.629Z,2.70
2023-05-12T02:34:29.932Z,2.40
2023-05-12T02:35:36.774Z,2.60
2023-05-12T02:36:43.072Z,2.40
2023-05-12T02:37:49.348Z,2.80
2023-05-12T02:38:55.147Z,2.50
2023-05-12T02:40:00.985Z,2.50
2023-05-12T02:41:07.713Z,2.80
2023-05-12T02:42:13.814Z,2.50
2023-05-12T02:43:20.137Z,2.10
2023-05-12T02:44:26.287Z,1.90
2023-05-12T02:45:32.517Z,1.80
2023-05-12T02:46:38.769Z,2.40
2023-05-12T02:47:44.622Z,2.20
2023-05-12T02:48:50.521Z,2.10
2023-05-12T02:49:57.289Z,2.40
2023-05-12T02:51:03.305Z,2.10
2023-05-12T02:52:09.905Z,2.60
2023-05-12T02:53:15.814Z,2.30
2023-05-12T02:54:21.872Z,3.10
2023-05-12T02:55:30.231Z,2.50
2023-05-12T02:56:36.292Z,2.60
2023-05-12T02:57:43.133Z,2.80
2023-05-12T02:58:49.289Z,2.30
2023-05-12T02:59:55.457Z,2.50
2023-05-12T03:01:10.196Z,2.80
2023-05-12T03:02:17.466Z,2.70
2023-05-12T03:03:23.481Z,2.40
2023-05-12T03:04:29.416Z,2.30
2023-05-12T03:05:35.476Z,2.60
2023-05-12T03:06:41.601Z,2.50
2023-05-12T03:07:49.842Z,2.60
2023-05-12T03:08:56.266Z,2.40
2023-05-12T03:10:02.235Z,2.70
2023-05-12T03:11:08.338Z,3.30
2023-05-12T03:12:14.697Z,2.90
2023-05-12T03:13:20.620Z,2.90
2023-05-12T03:14:28.646Z,3.60
2023-05-12T03:15:34.687Z,3.40
2023-05-12T03:16:40.908Z,2.80
2023-05-12T03:17:47.227Z,2.90
2023-05-12T03:18:53.819Z,3.70
2023-05-12T03:20:00.321Z,3.10
2023-05-12T03:21:07.087Z,3.10
2023-05-12T03:22:13.670Z,3.10
2023-05-12T03:23:19.817Z,3.40
2023-05-12T03:24:25.920Z,3.20
2023-05-12T03:25:32.367Z,3.50
2023-05-12T03:26:38.644Z,3.10
2023-05-12T03:27:44.583Z,3.30
2023-05-12T03:28:50.387Z,3.40
2023-05-12T03:29:56.387Z,3.10
2023-05-12T03:31:02.665Z,4.10
2023-05-12T03:32:09.495Z,3.70
2023-05-12T03:33:15.358Z,4.70
2023-05-12T03:34:21.302Z,3.80
2023-05-12T03:35:27.938Z,3.20
2023-05-12T03:36:34.007Z,2.70
2023-05-12T03:37:40.029Z,2.50
2023-05-12T03:38:45.997Z,3.10
2023-05-12T03:39:52.158Z,3.50
2023-05-12T03:41:06.738Z,3.30
2023-05-12T03:42:13.630Z,3.50
2023-05-12T03:43:19.807Z,3.50
2023-05-12T03:44:25.840Z,3.60
2023-05-12T03:45:32.128Z,3.50
2023-05-12T03:46:38.112Z,3.70
2023-05-12T03:47:44.085Z,3.60
2023-05-12T03:48:50.070Z,4.30
2023-05-12T03:49:56.214Z,3.40
2023-05-12T03:51:02.054Z,3.20
2023-05-12T03:52:08.606Z,3.80
2023-05-12T03:53:14.504Z,4.20
2023-05-12T03:54:20.285Z,3.70
2023-05-12T03:55:26.148Z,3.40
2023-05-12T03:56:32.247Z,3.90
2023-05-12T03:57:38.771Z,4.00
2023-05-12T03:58:47.422Z,4.10
2023-05-12T03:59:53.522Z,3.70
2023-05-12T04:01:01.583Z,4.10
2023-05-12T04:02:11.894Z,3.90
2023-05-12T04:03:17.929Z,3.90
2023-05-12T04:04:24.397Z,4.40
2023-05-12T04:05:30.308Z,3.50
2023-05-12T04:06:37.000Z,3.20
2023-05-12T04:07:42.712Z,3.50
2023-05-12T04:08:48.785Z,3.90
2023-05-12T04:09:55.119Z,4.10
2023-05-12T04:11:02.386Z,3.60
2023-05-12T04:12:09.988Z,3.80
2023-05-12T04:13:15.908Z,3.70
2023-05-12T04:14:31.790Z,4.10
2023-05-12T04:15:45.940Z,4.70
2023-05-12T04:16:52.178Z,4.00
2023-05-12T04:17:58.478Z,4.00
2023-05-12T04:19:04.985Z,4.20
2023-05-12T04:20:13.408Z,3.70
2023-05-12T04:21:19.758Z,4.10
2023-05-12T04:22:26.145Z,4.00
2023-05-12T04:23:32.299Z,3.60
2023-05-12T04:24:40.494Z,3.70
2023-05-12T04:25:46.951Z,4.40
2023-05-12T04:26:53.209Z,3.80
2023-05-12T04:27:59.695Z,4.30
2023-05-12T04:29:05.631Z,3.90
2023-05-12T04:30:13.640Z,4.40
2023-05-12T04:31:19.596Z,3.70
2023-05-12T04:32:26.362Z,3.50
2023-05-12T04:33:32.890Z,3.90
2023-05-12T04:34:38.646Z,4.00
2023-05-12T04:35:45.200Z,4.70
2023-05-12T04:36:51.635Z,4.20
2023-05-12T04:37:58.016Z,4.30
2023-05-12T04:39:04.810Z,4.60
2023-05-12T04:40:13.003Z,4.50
2023-05-12T04:41:19.164Z,4.30
2023-05-12T04:42:24.873Z,4.50
2023-05-12T04:45:44.376Z,4.50
2023-05-12T04:46:53.540Z,5.00
2023-05-12T04:49:07.102Z,4.70
2023-05-12T04:50:14.501Z,4.80
2023-05-12T04:51:20.656Z,4.20
2023-05-12T04:52:27.327Z,4.50
2023-05-12T04:53:35.023Z,4.20
2023-05-12T04:54:41.332Z,4.40
2023-05-12T04:55:47.620Z,4.90
2023-05-12T04:56:53.999Z,5.50
2023-05-12T04:57:59.714Z,4.90
2023-05-12T04:59:06.877Z,4.60
2023-05-12T05:00:15.528Z,4.80
2023-05-12T05:01:21.670Z,4.80
2023-05-12T05:02:28.102Z,5.20
2023-05-12T05:03:35.345Z,4.70
2023-05-12T05:04:41.553Z,4.50
2023-05-12T05:05:49.333Z,4.10
2023-05-12T05:06:56.236Z,4.80
2023-05-12T05:08:02.025Z,4.80
2023-05-12T05:09:09.023Z,5.20
2023-05-12T05:10:15.398Z,3.70
2023-05-12T05:11:23.107Z,4.80
2023-05-12T05:12:28.811Z,6.10
2023-05-12T05:13:35.416Z,4.50
2023-05-12T05:14:41.279Z,3.90
2023-05-12T05:15:53.370Z,4.70
2023-05-12T05:17:00.547Z,5.50
2023-05-12T05:18:07.226Z,4.60
2023-05-12T05:19:49.888Z,4.50
2023-05-12T05:21:01.106Z,3.70
2023-05-12T05:22:07.475Z,3.90
2023-05-12T05:23:14.054Z,4.50
2023-05-12T05:24:19.801Z,4.60
2023-05-12T05:25:27.131Z,4.20
2023-05-12T05:26:33.270Z,4.50
2023-05-12T05:27:39.791Z,4.10
2023-05-12T05:28:46.037Z,4.10
2023-05-12T05:29:52.597Z,4.20
2023-05-12T05:30:58.726Z,4.80
2023-05-12T05:32:05.556Z,5.00
2023-05-12T05:33:13.338Z,4.40
2023-05-12T05:34:22.265Z,4.40
2023-05-12T05:35:29.108Z,4.90
2023-05-12T05:36:35.563Z,4.80
2023-05-12T05:37:42.435Z,5.20
2023-05-12T05:38:48.992Z,4.60
2023-05-12T05:39:55.452Z,3.10
2023-05-12T05:41:01.290Z,2.50
2023-05-12T05:42:08.513Z,3.50
2023-05-12T05:43:15.156Z,5.30
2023-05-12T05:44:21.695Z,5.10
2023-05-12T05:45:28.737Z,3.80
2023-05-12T05:46:34.837Z,3.90
2023-05-12T05:47:44.331Z,4.10
2023-05-12T05:48:50.354Z,4.20
2023-05-12T05:49:56.422Z,4.90
2023-05-12T05:51:03.480Z,4.80
2023-05-12T05:52:10.872Z,4.30
2023-05-12T05:53:18.631Z,5.00
2023-05-12T05:54:26.486Z,4.10
2023-05-12T05:55:33.474Z,4.20
2023-05-12T05:56:39.814Z,3.80
2023-05-12T05:57:46.633Z,3.70
2023-05-12T05:58:53.765Z,4.20
2023-05-12T06:00:00.399Z,4.10
2023-05-12T06:01:07.461Z,4.10
2023-05-12T06:02:14.601Z,5.00
2023-05-12T06:03:20.884Z,5.00
2023-05-12T06:04:29.635Z,5.50
2023-05-12T06:05:35.897Z,4.00
2023-05-12T06:06:42.057Z,4.10
2023-05-12T06:07:48.047Z,3.60
2023-05-12T06:08:56.405Z,3.80
2023-05-12T06:10:03.150Z,2.90
2023-05-12T06:11:09.421Z,2.50
2023-05-12T06:12:15.825Z,1.30
2023-05-12T06:13:22.301Z,1.30
2023-05-12T06:14:28.326Z,1.20
2023-05-12T06:15:35.011Z,1.30
2023-05-12T06:16:40.860Z,1.00
2023-05-12T06:17:48.524Z,1.20
2023-05-12T06:18:54.558Z,1.50
2023-05-12T06:20:00.586Z,1.30
2023-05-12T06:21:07.110Z,1.20
2023-05-12T06:22:13.019Z,1.60
2023-05-12T06:23:18.938Z,1.40
2023-05-12T06:24:25.605Z,1.10
2023-05-12T06:25:33.330Z,1.50
2023-05-12T06:26:39.765Z,1.20
2023-05-12T06:27:45.795Z,1.40
2023-05-12T06:28:52.058Z,1.20
2023-05-12T06:29:58.235Z,1.20
2023-05-12T06:31:06.886Z,1.10
2023-05-12T06:32:12.883Z,1.30
2023-05-12T06:33:18.853Z,1.10
2023-05-12T06:34:26.092Z,1.00
2023-05-12T06:35:32.269Z,1.20
2023-05-12T06:36:38.773Z,1.00
2023-05-12T06:37:49.948Z,1.20
2023-05-12T06:38:56.551Z,1.40
2023-05-12T06:40:03.315Z,1.10
2023-05-12T06:41:09.722Z,1.00
2023-05-12T06:42:15.967Z,1.30
2023-05-12T06:43:23.718Z,1.30
2023-05-12T06:44:29.610Z,1.10
2023-05-12T06:45:36.146Z,1.20
2023-05-12T06:46:42.771Z,1.30
2023-05-12T06:47:49.006Z,1.40
2023-05-12T06:49:00.628Z,1.00
2023-05-12T06:50:08.921Z,1.10
2023-05-12T06:51:15.827Z,1.20
2023-05-12T06:52:24.043Z,1.60
2023-05-12T06:53:32.537Z,1.40
2023-05-12T06:54:38.627Z,1.20
2023-05-12T06:55:47.628Z,1.30
2023-05-12T06:56:53.724Z,1.10
2023-05-12T06:57:59.945Z,1.00
2023-05-12T06:59:06.539Z,1.10
2023-05-12T07:00:16.361Z,1.30
2023-05-12T07:01:22.349Z,1.30
2023-05-12T07:02:28.928Z,1.30
2023-05-12T07:03:35.529Z,1.10
2023-05-12T07:04:45.704Z,1.10
2023-05-12T07:05:52.439Z,1.40
2023-05-12T07:06:59.021Z,1.40
2023-05-12T07:08:06.022Z,1.30
2023-05-12T07:09:11.775Z,1.40
2023-05-12T07:10:17.902Z,1.30
2023-05-12T07:11:24.171Z,1.20
2023-05-12T07:12:32.451Z,1.00
2023-05-12T07:13:39.217Z,1.10
2023-05-12T07:14:45.297Z,1.40
2023-05-12T07:15:51.677Z,1.30
2023-05-12T07:16:58.238Z,1.40
2023-05-12T07:18:06.036Z,1.20
2023-05-12T07:19:12.503Z,1.30
2023-05-12T07:20:19.308Z,1.30
2023-05-12T07:21:25.307Z,1.10
2023-05-12T07:22:32.800Z,1.10
2023-05-12T07:23:40.153Z,1.20
2023-05-12T07:24:46.886Z,1.00
2023-05-12T07:25:53.143Z,1.10
2023-05-12T07:26:59.178Z,1.10
2023-05-12T07:28:05.442Z,1.10
2023-05-12T07:29:13.804Z,1.20
2023-05-12T07:30:22.461Z,1.20
2023-05-12T07:31:28.967Z,1.10
2023-05-12T07:32:35.503Z,1.20
2023-05-12T07:33:41.680Z,1.00
2023-05-12T07:34:48.413Z,1.20
2023-05-12T07:35:54.645Z,1.20
2023-05-12T07:37:02.640Z,1.40
2023-05-12T07:38:10.043Z,1.00
2023-05-12T07:39:19.382Z,1.10
2023-05-12T07:40:26.152Z,1.10
2023-05-12T07:41:34.532Z,0.90
2023-05-12T07:42:41.150Z,1.00
2023-05-12T07:43:47.016Z,1.10
2023-05-12T07:44:52.870Z,0.90
2023-05-12T07:46:01.121Z,1.10
2023-05-12T07:47:08.007Z,0.90
2023-05-12T07:48:14.104Z,1.30
2023-05-12T07:49:20.637Z,1.30
2023-05-12T07:50:26.826Z,1.20
2023-05-12T07:51:33.139Z,0.90
2023-05-12T07:52:45.829Z,1.10
2023-05-12T07:53:52.212Z,1.10
2023-05-12T07:54:59.149Z,1.00
2023-05-12T07:56:05.811Z,1.00
2023-05-12T07:57:12.212Z,1.10
2023-05-12T07:58:18.438Z,1.20
2023-05-12T07:59:24.694Z,1.20
2023-05-12T08:00:31.154Z,1.20
2023-05-12T08:01:37.298Z,0.90
2023-05-12T08:02:43.886Z,1.10
2023-05-12T08:03:51.637Z,1.40
2023-05-12T08:04:58.481Z,1.00
2023-05-12T08:06:07.371Z,1.10
2023-05-12T08:07:13.335Z,1.50
2023-05-12T08:08:19.742Z,1.60
2023-05-12T08:09:26.207Z,1.10
2023-05-12T08:10:33.390Z,0.90
2023-05-12T08:11:39.847Z,0.90
2023-05-12T08:12:45.880Z,1.20
2023-05-12T08:13:52.780Z,1.20
2023-05-12T08:14:59.015Z,1.00
2023-05-12T08:16:06.073Z,1.20
2023-05-12T08:17:12.080Z,1.20
2023-05-12T08:18:17.882Z,1.00
2023-05-12T08:19:24.047Z,1.10
2023-05-12T08:20:30.042Z,1.20
2023-05-12T08:21:37.036Z,1.40
2023-05-12T08:22:44.209Z,1.00
2023-05-12T08:23:50.523Z,1.20
2023-05-12T08:24:56.447Z,0.90
2023-05-12T08:26:02.572Z,1.10
2023-05-12T08:27:09.479Z,1.10
2023-05-12T08:28:15.896Z,1.00
2023-05-12T08:29:22.869Z,1.10
2023-05-12T08:30:29.405Z,1.10
2023-05-12T08:31:35.619Z,1.00
2023-05-12T08:32:42.096Z,1.20
2023-05-12T08:33:51.828Z,1.20
2023-05-12T08:35:06.915Z,0.90
2023-05-12T08:36:12.951Z,0.90
2023-05-12T08:37:18.906Z,0.80
2023-05-12T08:38:25.075Z,1.00
2023-05-12T08:39:32.650Z,0.80
2023-05-12T08:40:44.276Z,0.90
2023-05-12T08:41:59.400Z,1.10
2023-05-12T08:43:20.657Z,0.90
2023-05-12T08:44:27.687Z,0.90
2023-05-12T08:45:36.178Z,1.10
2023-05-12T08:46:42.403Z,1.10
2023-05-12T08:47:50.581Z,0.70
2023-05-12T08:48:59.261Z,0.70
2023-05-12T08:50:08.398Z,0.90
2023-05-12T08:51:15.845Z,1.10
2023-05-12T08:52:23.185Z,0.80
2023-05-12T08:53:30.305Z,1.10
2023-05-12T08:54:48.553Z,1.20
2023-05-12T08:57:29.590Z,0.80
2023-05-12T08:58:41.723Z,0.90
2023-05-12T08:59:48.914Z,0.80
2023-05-12T09:00:55.014Z,1.20
2023-05-12T09:02:04.505Z,1.50
2023-05-12T09:03:13.475Z,1.00
2023-05-12T09:05:27.413Z,1.10
2023-05-12T09:06:34.316Z,0.90
2023-05-12T09:07:45.288Z,0.80
2023-05-12T09:08:51.902Z,0.90
2023-05-12T09:10:01.107Z,0.80
2023-05-12T09:11:09.582Z,0.90
2023-05-12T09:12:19.732Z,1.00
2023-05-12T09:13:37.590Z,0.90
2023-05-12T09:14:48.192Z,1.00
2023-05-12T09:15:57.186Z,1.10
2023-05-12T09:17:07.161Z,1.10
2023-05-12T09:18:13.900Z,0.90
2023-05-12T09:19:23.480Z,1.20
2023-05-12T09:20:31.967Z,1.00
2023-05-12T09:22:44.014Z,1.10
2023-05-12T09:24:01.390Z,1.20
2023-05-12T09:25:19.945Z,1.00
2023-05-12T09:26:27.790Z,1.10
2023-05-12T09:27:34.011Z,0.70
2023-05-12T09:28:40.900Z,1.00
2023-05-12T09:29:58.649Z,1.10
2023-05-12T09:31:20.223Z,1.10
2023-05-12T09:32:43.348Z,1.00
2023-05-12T09:33:53.489Z,0.90
2023-05-12T09:35:06.827Z,1.00
2023-05-12T09:36:17.146Z,1.10
2023-05-12T09:37:32.775Z,0.90
2023-05-12T09:38:39.107Z,0.90
2023-05-12T09:39:46.386Z,1.00
2023-05-12T09:40:53.612Z,0.90
2023-05-12T09:42:00.049Z,0.80
2023-05-12T09:43:08.073Z,0.70
2023-05-12T09:44:17.135Z,0.70
2023-05-12T09:45:24.826Z,0.90
2023-05-12T09:46:31.298Z,0.80
2023-05-12T09:47:39.754Z,0.70
2023-05-12T09:48:48.712Z,0.70
2023-05-12T09:49:57.714Z,0.90
2023-05-12T09:51:04.114Z,1.00
2023-05-12T09:52:10.494Z,0.70
2023-05-12T09:53:18.113Z,0.90
2023-05-12T09:54:31.496Z,1.00
2023-05-12T09:55:37.560Z,1.00
2023-05-12T09:56:44.598Z,0.90
2023-05-12T09:57:52.829Z,0.80
2023-05-12T09:58:59.206Z,0.80
2023-05-12T10:00:21.163Z,0.90
2023-05-12T10:01:36.179Z,0.70
2023-05-12T10:02:44.599Z,1.00
2023-05-12T10:03:55.064Z,0.80
2023-05-12T10:05:07.164Z,0.90
2023-05-12T10:06:22.920Z,0.80
2023-05-12T10:07:31.729Z,0.70
2023-05-12T10:08:42.448Z,1.20
2023-05-12T10:09:49.752Z,0.70
2023-05-12T10:10:58.179Z,0.70
2023-05-12T10:12:07.176Z,0.90
2023-05-12T10:13:14.252Z,0.90
2023-05-12T10:14:22.892Z,1.00
2023-05-12T10:15:31.048Z,0.90
2023-05-12T10:16:39.402Z,1.10
2023-05-12T10:17:47.040Z,0.90
2023-05-12T10:18:54.567Z,1.00
2023-05-12T10:20:02.416Z,0.80
2023-05-12T10:21:09.317Z,1.10
2023-05-12T10:22:20.042Z,0.90
2023-05-12T10:23:27.614Z,1.10
2023-05-12T10:24:35.112Z,0.90
2023-05-12T10:25:44.141Z,1.10
2023-05-12T10:26:51.154Z,1.00
2023-05-12T10:27:59.321Z,0.90
2023-05-12T10:29:06.369Z,1.10
2023-05-12T10:30:16.748Z,1.00
2023-05-12T10:31:23.538Z,1.10
2023-05-12T10:32:30.165Z,0.90
2023-05-12T10:33:36.396Z,1.10
2023-05-12T10:34:43.569Z,1.00
2023-05-12T10:35:52.282Z,1.20
2023-05-12T10:37:00.148Z,1.10
2023-05-12T10:38:10.163Z,1.20
2023-05-12T10:39:18.032Z,1.10
2023-05-12T10:40:29.205Z,1.20
2023-05-12T10:41:36.459Z,1.10
2023-05-12T10:42:44.679Z,1.30
2023-05-12T10:43:52.702Z,1.20
2023-05-12T10:45:00.157Z,1.40
2023-05-12T10:46:17.408Z,1.40
2023-05-12T10:47:36.843Z,1.10
2023-05-12T10:48:58.495Z,1.20
2023-05-12T10:50:05.689Z,1.60
2023-05-12T10:51:12.949Z,1.10
2023-05-12T10:52:22.013Z,1.30
2023-05-12T10:53:47.722Z,1.10
2023-05-12T10:55:03.102Z,1.10
2023-05-12T10:56:10.874Z,1.20
2023-05-12T10:57:22.233Z,1.50
2023-05-12T10:58:29.042Z,1.30
2023-05-12T10:59:36.256Z,1.00
2023-05-12T11:00:50.759Z,0.90
2023-05-12T11:02:03.938Z,1.20
2023-05-12T11:03:18.929Z,1.10
2023-05-12T11:04:41.033Z,1.30
2023-05-12T11:05:59.181Z,1.60
2023-05-12T11:07:12.199Z,1.10
2023-05-12T11:08:19.915Z,1.30
2023-05-12T11:09:27.354Z,1.20
2023-05-12T11:10:35.680Z,1.20
2023-05-12T11:11:45.639Z,1.10
2023-05-12T11:12:53.646Z,1.50
2023-05-12T11:14:00.561Z,1.10
2023-05-12T11:15:08.807Z,1.30
2023-05-12T11:16:16.723Z,1.10
2023-05-12T11:17:23.420Z,1.20
2023-05-12T11:18:29.952Z,1.30
2023-05-12T11:19:37.964Z,1.40
2023-05-12T11:20:44.046Z,1.40
2023-05-12T11:21:49.912Z,1.20
2023-05-12T11:22:56.132Z,1.20
2023-05-12T11:24:03.430Z,1.40
2023-05-12T11:25:14.175Z,1.30
2023-05-12T11:26:21.421Z,1.10
2023-05-12T11:27:28.800Z,1.40
2023-05-12T11:28:43.619Z,1.30
2023-05-12T11:29:58.430Z,1.10
2023-05-12T11:31:04.744Z,1.20
2023-05-12T11:32:13.163Z,1.40
2023-05-12T11:33:22.536Z,1.20
2023-05-12T11:34:29.113Z,1.30
2023-05-12T11:35:35.200Z,1.50
2023-05-12T11:36:42.727Z,1.30
2023-05-12T11:37:48.937Z,1.70
2023-05-12T11:38:55.166Z,1.20
2023-05-12T11:40:02.731Z,1.40
2023-05-12T11:41:08.535Z,1.30
2023-05-12T11:42:17.774Z,1.40
2023-05-12T11:43:28.381Z,1.60
2023-05-12T11:44:34.668Z,2.10
2023-05-12T11:45:42.792Z,1.80
2023-05-12T11:47:03.874Z,1.70
2023-05-12T11:48:12.583Z,1.50
2023-05-12T11:49:19.157Z,1.80
2023-05-12T11:50:26.525Z,1.70
2023-05-12T11:51:32.493Z,1.70
2023-05-12T11:52:39.434Z,2.00
2023-05-12T11:53:46.892Z,1.60
2023-05-12T11:54:56.975Z,1.50
2023-05-12T11:56:03.541Z,1.30
2023-05-12T11:57:09.612Z,1.20
2023-05-12T11:58:21.985Z,1.40
2023-05-12T11:59:34.035Z,1.70
2023-05-12T12:00:40.484Z,1.60
2023-05-12T12:01:48.038Z,1.50
2023-05-12T12:02:54.444Z,1.60
2023-05-12T12:04:01.062Z,1.60
2023-05-12T12:05:18.621Z,1.70
2023-05-12T12:06:25.391Z,1.30
2023-05-12T12:07:33.197Z,1.40
2023-05-12T12:08:49.266Z,1.30
2023-05-12T12:09:55.525Z,1.80
2023-05-12T12:11:03.674Z,1.20
2023-05-12T12:12:12.699Z,1.20
2023-05-12T12:13:23.890Z,1.60
2023-05-12T12:14:31.082Z,1.30
2023-05-12T12:15:37.229Z,1.40
2023-05-12T12:16:45.130Z,1.50
2023-05-12T12:17:51.491Z,1.30
2023-05-12T12:18:58.709Z,1.30
2023-05-12T12:20:06.240Z,1.20
2023-05-12T12:21:12.357Z,1.40
2023-05-12T12:22:18.648Z,1.30
2023-05-12T12:23:25.425Z,1.50
2023-05-12T12:24:31.566Z,1.40
2023-05-12T12:25:37.865Z,1.30
2023-05-12T12:26:43.769Z,1.70
2023-05-12T12:27:52.933Z,1.20
2023-05-12T12:28:59.353Z,1.20
2023-05-12T12:30:06.977Z,1.40
2023-05-12T12:31:14.325Z,1.30
2023-05-12T12:32:20.661Z,1.30
2023-05-12T12:33:27.278Z,1.20
2023-05-12T12:34:34.017Z,1.20
2023-05-12T12:35:39.803Z,1.50
2023-05-12T12:36:47.422Z,1.60
2023-05-12T12:37:53.360Z,1.30
2023-05-12T12:39:00.161Z,1.50
2023-05-12T12:40:08.764Z,1.40
2023-05-12T12:41:15.106Z,1.70
2023-05-12T12:42:21.057Z,1.50
2023-05-12T12:43:27.200Z,1.50
2023-05-12T12:44:33.089Z,1.30
2023-05-12T12:45:38.870Z,1.60
2023-05-12T12:46:44.659Z,1.30
2023-05-12T12:47:52.710Z,1.70
2023-05-12T12:48:58.969Z,1.80
2023-05-12T12:50:07.367Z,1.80
2023-05-12T12:51:13.753Z,2.20
2023-05-12T12:52:19.673Z,1.60
2023-05-12T12:53:25.510Z,1.30
2023-05-12T12:54:31.291Z,1.30
2023-05-12T12:55:37.716Z,1.30
2023-05-12T12:56:44.780Z,1.50
2023-05-12T12:57:51.151Z,1.40
2023-05-12T12:58:56.989Z,1.50
2023-05-12T13:00:04.747Z,1.60
2023-05-12T13:01:10.960Z,1.60
2023-05-12T13:02:17.443Z,1.50
2023-05-12T13:03:24.215Z,1.40
2023-05-12T13:04:30.616Z,1.50
2023-05-12T13:05:36.385Z,1.60
2023-05-12T13:06:42.311Z,1.70
2023-05-12T13:07:48.175Z,1.50
2023-05-12T13:08:54.549Z,1.70
2023-05-12T13:10:01.092Z,1.60
2023-05-12T13:11:09.141Z,1.80
2023-05-12T13:12:14.988Z,1.80
2023-05-12T13:13:21.204Z,1.60
2023-05-12T13:14:27.386Z,1.60
2023-05-12T13:15:34.217Z,1.60
2023-05-12T13:16:40.210Z,1.80
2023-05-12T13:17:47.438Z,1.40
2023-05-12T13:18:53.447Z,1.50
2023-05-12T13:19:59.574Z,1.90
2023-05-12T13:21:06.417Z,1.50
2023-05-12T13:22:12.386Z,1.70
2023-05-12T13:23:18.907Z,1.70
2023-05-12T13:24:25.818Z,1.80
2023-05-12T13:25:32.319Z,1.90
2023-05-12T13:26:38.015Z,1.70
2023-05-12T13:27:43.774Z,1.70
2023-05-12T13:28:50.028Z,1.50
2023-05-12T13:29:55.777Z,1.60
2023-05-12T13:31:01.742Z,1.40
2023-05-12T13:32:08.675Z,1.50
2023-05-12T13:33:14.662Z,1.70
2023-05-12T13:34:21.583Z,1.70
2023-05-12T13:35:27.367Z,1.80
2023-05-12T13:36:34.743Z,1.70
2023-05-12T13:37:41.366Z,1.70
2023-05-12T13:38:47.138Z,1.50
2023-05-12T13:39:53.667Z,1.50
2023-05-12T13:40:59.400Z,2.10
2023-05-12T13:42:06.382Z,2.60
2023-05-12T13:43:13.153Z,2.10
2023-05-12T13:44:19.667Z,1.80
2023-05-12T13:45:25.835Z,1.90
2023-05-12T13:46:32.103Z,2.00
2023-05-12T13:47:38.390Z,2.20
2023-05-12T13:48:44.805Z,1.80
2023-05-12T13:49:50.875Z,1.90
2023-05-12T13:50:57.126Z,1.40
2023-05-12T13:52:04.106Z,1.90
2023-05-12T13:53:10.242Z,1.50
2023-05-12T13:54:16.642Z,1.80
2023-05-12T13:55:23.099Z,2.00
2023-05-12T13:56:29.096Z,2.20
2023-05-12T13:57:35.247Z,2.30
2023-05-12T13:58:41.301Z,2.70
2023-05-12T13:59:47.638Z,2.60
2023-05-12T14:00:54.428Z,2.70
2023-05-12T14:02:01.930Z,2.10
2023-05-12T14:03:09.143Z,2.10
2023-05-12T14:04:16.612Z,2.20
2023-05-12T14:05:23.838Z,2.20
2023-05-12T14:06:32.353Z,2.70
2023-05-12T14:07:38.944Z,2.60
2023-05-12T14:08:44.848Z,2.30
2023-05-12T14:09:50.886Z,2.80
2023-05-12T14:10:56.892Z,2.10
2023-05-12T14:12:04.467Z,2.00
2023-05-12T14:13:10.500Z,2.30
2023-05-12T14:14:16.501Z,2.00
2023-05-12T14:15:33.040Z,2.00
2023-05-12T14:16:49.885Z,2.30
2023-05-12T14:17:56.496Z,1.90
2023-05-12T14:19:03.196Z,1.80
2023-05-12T14:20:13.097Z,2.20
2023-05-12T14:21:19.369Z,2.20
2023-05-12T14:22:26.726Z,2.00
2023-05-12T14:23:33.198Z,1.80
2023-05-12T14:24:39.163Z,2.30
2023-05-12T14:25:45.195Z,2.40
2023-05-12T14:26:51.238Z,2.00
2023-05-12T14:27:59.962Z,2.20
2023-05-12T14:29:08.692Z,1.90
2023-05-12T14:30:16.873Z,1.70
2023-05-12T14:31:22.942Z,2.00
2023-05-12T14:32:29.056Z,1.70
2023-05-12T14:33:35.915Z,2.20
2023-05-12T14:34:41.946Z,2.10
2023-05-12T14:35:59.411Z,2.00
2023-05-12T14:37:13.310Z,2.00
2023-05-12T14:38:19.210Z,1.80
2023-05-12T14:39:25.041Z,1.80
2023-05-12T14:40:31.257Z,2.00
2023-05-12T14:41:38.568Z,1.70
2023-05-12T14:42:44.875Z,2.00
2023-05-12T14:43:50.681Z,1.70
2023-05-12T14:44:56.742Z,1.80
2023-05-12T14:46:03.133Z,2.00
2023-05-12T14:47:09.986Z,1.90
2023-05-12T14:48:16.246Z,1.70
2023-05-12T14:49:22.519Z,2.00
2023-05-12T14:50:28.662Z,2.30
2023-05-12T14:51:34.414Z,2.10
2023-05-12T14:52:40.353Z,2.10
2023-05-12T14:53:46.207Z,1.70
2023-05-12T14:54:52.237Z,2.00
2023-05-12T14:55:58.702Z,2.50
2023-05-12T14:57:05.281Z,2.10
2023-05-12T14:58:11.597Z,2.80
2023-05-12T14:59:17.746Z,2.00
2023-05-12T15:00:25.004Z,2.00
2023-05-12T15:01:31.698Z,2.00
2023-05-12T15:02:38.429Z,2.00
2023-05-12T15:03:46.688Z,1.90
2023-05-12T15:04:52.871Z,1.80
2023-05-12T15:07:08.359Z,2.10
2023-05-12T15:08:15.148Z,1.90
2023-05-12T15:09:20.993Z,1.80